createdAt,value
2019-02-21T00:00:10.239Z,32.48
2019-02-21T00:02:37.689Z,30.17
2019-02-21T00:05:05.857Z,30.97
2019-02-21T00:07:33.198Z,28.70
2019-02-21T00:10:00.831Z,33.95
2019-02-21T00:12:28.267Z,38.65
2019-02-21T00:14:55.894Z,31.27
2019-02-21T00:17:23.523Z,30.85
2019-02-21T00:19:50.971Z,31.07
2019-02-21T00:22:18.430Z,33.15
2019-02-21T00:24:45.989Z,35.35
2019-02-21T00:27:13.458Z,32.63
2019-02-21T00:29:42.349Z,35.23
2019-02-21T00:32:09.775Z,34.13
2019-02-21T00:34:39.096Z,33.90
2019-02-21T00:37:06.519Z,33.67
2019-02-21T00:39:33.906Z,34.30
2019-02-21T00:42:01.297Z,34.73
2019-02-21T00:44:28.755Z,37.23
2019-02-21T00:46:56.145Z,32.53
2019-02-21T00:49:23.465Z,33.65
2019-02-21T00:51:50.775Z,35.65
2019-02-21T00:54:21.172Z,31.85
2019-02-21T00:56:48.523Z,31.15
2019-02-21T00:59:15.979Z,32.67
2019-02-21T01:01:43.415Z,36.08
2019-02-21T01:04:11.007Z,34.13
2019-02-21T01:06:38.525Z,34.67
2019-02-21T01:09:06.091Z,38.67
2019-02-21T01:11:33.533Z,37.58
2019-02-21T01:14:00.866Z,35.43
2019-02-21T01:16:28.303Z,31.45
2019-02-21T01:18:55.723Z,30.72
2019-02-21T01:21:23.137Z,36.48
2019-02-21T01:23:50.596Z,34.30
2019-02-21T01:26:18.099Z,34.80
2019-02-21T01:28:45.490Z,30.70
2019-02-21T01:31:12.878Z,30.23
2019-02-21T01:33:40.205Z,31.62
2019-02-21T01:36:07.571Z,32.58
2019-02-21T01:38:35.025Z,33.70
2019-02-21T01:41:02.336Z,33.35
2019-02-21T01:43:29.697Z,33.65
2019-02-21T01:45:57.159Z,31.73
2019-02-21T01:48:24.753Z,30.57
2019-02-21T01:50:52.206Z,29.72
2019-02-21T01:53:19.697Z,31.00
2019-02-21T01:55:47.012Z,30.80
2019-02-21T01:58:14.398Z,30.08
2019-02-21T02:00:41.731Z,29.90
2019-02-21T02:03:09.144Z,30.50
2019-02-21T02:05:36.486Z,28.05
2019-02-21T02:08:03.938Z,27.48
2019-02-21T02:10:31.375Z,28.30
2019-02-21T02:12:58.782Z,31.93
2019-02-21T02:15:26.110Z,31.20
2019-02-21T02:17:53.482Z,27.02
2019-02-21T02:20:20.852Z,28.30
2019-02-21T02:22:48.187Z,29.23
2019-02-21T02:25:15.480Z,32.58
2019-02-21T02:27:42.802Z,28.20
2019-02-21T02:30:10.209Z,27.37
2019-02-21T02:32:37.623Z,32.73
2019-02-21T02:35:05.462Z,29.72
2019-02-21T02:37:32.835Z,34.18
2019-02-21T02:40:00.448Z,35.63
2019-02-21T02:42:27.939Z,30.27
2019-02-21T02:44:55.364Z,32.93
2019-02-21T02:47:22.860Z,33.42
2019-02-21T02:49:50.186Z,32.95
2019-02-21T02:52:17.603Z,31.80
2019-02-21T02:54:44.940Z,32.40
2019-02-21T02:57:12.542Z,28.27
2019-02-21T02:59:41.198Z,34.05
2019-02-21T03:02:08.718Z,29.00
2019-02-21T03:04:36.165Z,27.77
2019-02-21T03:07:03.536Z,28.62
2019-02-21T03:09:30.934Z,30.40
2019-02-21T03:11:58.281Z,27.62
2019-02-21T03:14:25.630Z,24.77
2019-02-21T03:16:52.939Z,25.70
2019-02-21T03:19:20.294Z,25.40
2019-02-21T03:21:47.694Z,26.17
2019-02-21T03:24:15.193Z,27.77
2019-02-21T03:26:42.500Z,26.65
2019-02-21T03:29:09.871Z,25.72
2019-02-21T03:31:53.689Z,24.18
2019-02-21T03:34:06.289Z,25.05
2019-02-21T03:36:33.643Z,23.77
2019-02-21T03:39:01.047Z,26.93
2019-02-21T03:41:28.524Z,28.75
2019-02-21T03:43:55.842Z,27.52
2019-02-21T03:46:23.213Z,24.07
2019-02-21T03:48:50.625Z,22.60
2019-02-21T03:51:18.041Z,22.90
2019-02-21T03:53:45.400Z,25.40
2019-02-21T03:56:12.784Z,24.80
2019-02-21T03:58:40.185Z,23.67
2019-02-21T04:01:07.645Z,26.10
2019-02-21T04:03:35.467Z,26.02
2019-02-21T04:06:02.981Z,26.42
2019-02-21T04:08:30.326Z,26.05
2019-02-21T04:10:57.705Z,25.35
2019-02-21T04:13:25.201Z,28.35
2019-02-21T04:15:52.675Z,23.95
2019-02-21T04:18:20.055Z,25.10
2019-02-21T04:20:47.389Z,22.82
2019-02-21T04:23:14.758Z,25.80
2019-02-21T04:25:42.086Z,24.25
2019-02-21T04:28:09.379Z,25.30
2019-02-21T04:30:36.804Z,23.27
2019-02-21T04:33:04.131Z,27.22
2019-02-21T04:35:32.490Z,23.10
2019-02-21T04:38:00.109Z,25.55
2019-02-21T04:40:27.535Z,27.20
2019-02-21T04:42:54.963Z,27.35
2019-02-21T04:45:22.384Z,24.43
2019-02-21T04:47:49.727Z,26.55
2019-02-21T04:50:17.071Z,24.90
2019-02-21T04:52:44.433Z,23.70
2019-02-21T04:55:11.785Z,29.27
2019-02-21T04:57:39.157Z,25.15
2019-02-21T05:00:08.014Z,24.30
2019-02-21T05:02:35.371Z,24.27
2019-02-21T05:05:02.740Z,25.37
2019-02-21T05:07:30.053Z,22.20
2019-02-21T05:09:58.546Z,21.60
2019-02-21T05:12:26.214Z,23.00
2019-02-21T05:14:53.671Z,23.77
2019-02-21T05:17:21.066Z,23.25
2019-02-21T05:19:48.491Z,30.43
2019-02-21T05:22:15.791Z,31.37
2019-02-21T05:24:43.146Z,30.88
2019-02-21T05:27:12.156Z,33.60
2019-02-21T05:29:39.565Z,27.37
2019-02-21T05:32:14.363Z,23.05
2019-02-21T07:33:49.556Z,23.30
2019-02-21T07:36:16.851Z,20.55
2019-02-21T07:38:44.198Z,19.30
2019-02-21T07:41:11.616Z,19.57
2019-02-21T07:43:38.961Z,19.80
2019-02-21T07:46:06.977Z,20.48
2019-02-21T07:48:36.467Z,19.87
2019-02-21T07:51:04.335Z,21.42
2019-02-21T07:53:31.660Z,23.22
2019-02-21T07:55:58.981Z,19.05
2019-02-21T07:58:26.286Z,18.87
2019-02-21T08:00:54.174Z,21.75
2019-02-21T08:03:30.329Z,18.12
2019-02-21T08:05:51.765Z,25.70
2019-02-21T08:08:20.952Z,17.35
2019-02-21T08:10:48.146Z,19.30
2019-02-21T08:13:15.433Z,20.72
2019-02-21T08:15:42.758Z,21.40
2019-02-21T08:18:10.036Z,17.23
2019-02-21T08:20:40.884Z,18.15
2019-02-21T08:23:06.361Z,20.32
2019-02-21T08:25:33.711Z,19.60
2019-02-21T08:28:01.011Z,16.73
2019-02-21T08:30:29.389Z,18.37
2019-02-21T08:33:30.706Z,17.37
2019-02-21T08:35:45.625Z,18.85
2019-02-21T08:38:13.041Z,17.95
2019-02-21T08:40:40.319Z,20.35
2019-02-21T08:43:07.638Z,21.00
2019-02-21T08:45:35.029Z,17.73
2019-02-21T08:48:02.403Z,17.90
2019-02-21T08:50:29.700Z,20.65
2019-02-21T08:52:56.991Z,17.95
2019-02-21T08:55:24.373Z,19.02
2019-02-21T08:57:51.739Z,19.17
2019-02-21T09:00:19.055Z,20.20
2019-02-21T09:02:46.405Z,18.65
2019-02-21T09:08:07.359Z,22.22
2019-02-21T09:10:54.024Z,24.30
2019-02-21T09:13:42.107Z,24.30
2019-02-21T09:16:09.479Z,20.72
2019-02-21T09:18:36.871Z,20.25
2019-02-21T09:21:04.192Z,20.27
2019-02-21T09:23:31.491Z,19.73
2019-02-21T09:25:58.849Z,20.73
2019-02-21T09:28:26.155Z,22.67
2019-02-21T09:30:53.439Z,21.63
2019-02-21T09:33:21.516Z,22.30
2019-02-21T09:35:49.777Z,23.90
2019-02-21T09:38:17.069Z,23.32
2019-02-21T09:40:44.374Z,22.37
2019-02-21T09:43:11.668Z,22.37
2019-02-21T09:45:58.279Z,21.80
2019-02-21T09:48:25.964Z,21.50
2019-02-21T09:50:53.274Z,21.07
2019-02-21T09:53:20.582Z,22.20
2019-02-21T09:55:50.289Z,20.97
2019-02-21T09:58:17.140Z,21.33
2019-02-21T10:01:03.740Z,20.90
2019-02-21T10:03:31.094Z,23.73
2019-02-21T10:05:58.482Z,23.83
2019-02-21T10:08:25.842Z,23.40
2019-02-21T10:10:53.190Z,25.57
2019-02-21T10:13:20.486Z,23.60
2019-02-21T10:15:47.760Z,23.63
2019-02-21T10:18:15.107Z,23.57
2019-02-21T10:20:42.392Z,24.50
2019-02-21T10:23:09.719Z,22.80
2019-02-21T10:25:37.322Z,25.03
2019-02-21T10:28:04.682Z,25.07
2019-02-21T10:30:31.963Z,24.83
2019-02-21T10:32:59.272Z,23.20
2019-02-21T10:35:26.632Z,25.97
2019-02-21T10:37:53.935Z,25.53
2019-02-21T10:40:21.216Z,23.93
2019-02-21T10:42:48.502Z,26.00
2019-02-21T10:48:17.228Z,22.80
2019-02-21T10:50:44.504Z,22.90
2019-02-21T10:53:11.804Z,22.93
2019-02-21T10:55:39.188Z,23.20
2019-02-21T10:58:06.468Z,24.30
2019-02-21T11:00:33.774Z,23.73
2019-02-21T11:03:01.129Z,25.05
2019-02-21T11:05:28.500Z,25.62
2019-02-21T11:07:55.858Z,24.95
2019-02-21T11:58:17.319Z,26.55
2019-02-21T12:00:44.688Z,23.40
2019-02-21T12:03:12.029Z,21.87
2019-02-21T12:05:39.371Z,22.40
2019-02-21T12:08:06.705Z,21.50
2019-02-21T12:10:34.054Z,23.07
2019-02-21T12:13:01.479Z,26.35
2019-02-21T12:15:28.879Z,20.68
2019-02-21T12:17:56.251Z,21.65
2019-02-21T12:20:23.566Z,24.25
2019-02-21T12:22:50.861Z,23.47
2019-02-21T12:25:37.531Z,21.97
2019-02-21T12:28:04.827Z,22.48
2019-02-21T12:30:33.463Z,21.62
2019-02-21T12:43:48.505Z,22.22
2019-02-21T12:46:15.868Z,21.55
2019-02-21T12:48:43.175Z,20.15
2019-02-21T12:51:10.489Z,22.80
2019-02-21T12:53:38.069Z,23.45
2019-02-21T12:56:05.365Z,23.40
2019-02-21T13:29:03.825Z,23.85
2019-02-21T13:31:33.251Z,24.87
2019-02-21T13:34:00.565Z,24.30
2019-02-21T13:36:27.953Z,25.52
2019-02-21T13:38:56.962Z,24.15
2019-02-21T13:41:24.457Z,25.52
2019-02-21T13:43:52.872Z,27.60
2019-02-21T13:46:20.258Z,25.70
2019-02-21T13:48:47.648Z,26.65
2019-02-21T13:51:15.160Z,25.10
2019-02-21T13:53:42.564Z,28.52
2019-02-21T13:56:09.928Z,33.63
2019-02-21T13:58:37.254Z,31.30
2019-02-21T14:01:04.748Z,24.72
2019-02-21T14:22:22.369Z,26.07
2019-02-21T14:24:50.842Z,26.70
2019-02-21T14:27:18.698Z,25.05
2019-02-21T14:29:46.083Z,27.32
2019-02-21T14:32:13.728Z,27.13
2019-02-21T14:43:00.453Z,25.70
2019-02-21T14:45:27.836Z,30.90
2019-02-21T14:47:55.258Z,26.60
2019-02-21T14:50:25.490Z,29.90
2019-02-21T14:58:11.944Z,33.28
2019-02-21T15:00:39.879Z,29.20
2019-02-21T15:03:07.252Z,33.90
2019-02-21T15:16:14.826Z,30.57
2019-02-21T15:18:42.413Z,30.62
2019-02-21T15:21:09.820Z,29.30
2019-02-21T15:23:37.355Z,31.00
2019-02-21T15:26:05.043Z,34.20
2019-02-21T15:28:32.487Z,36.03
2019-02-21T15:30:59.918Z,31.50
2019-02-21T15:33:27.315Z,34.27
2019-02-21T16:08:56.059Z,29.90
2019-02-21T16:11:23.653Z,30.92
2019-02-21T16:14:03.282Z,34.78
2019-02-21T17:09:44.654Z,48.23
2019-02-21T17:12:12.065Z,44.73
2019-02-21T17:14:39.571Z,47.40
2019-02-21T17:17:07.941Z,49.42
2019-02-21T17:43:20.618Z,48.28
2019-02-21T17:45:47.988Z,50.75
2019-02-21T17:48:15.819Z,57.93
2019-02-21T17:50:43.523Z,58.80
2019-02-21T17:53:11.176Z,59.03
2019-02-21T17:55:38.776Z,63.42
2019-02-21T17:58:06.477Z,62.43
2019-02-21T19:38:20.851Z,71.80
2019-02-21T19:40:48.163Z,72.97
2019-02-21T19:43:15.661Z,70.70
2019-02-21T19:45:43.222Z,71.53
2019-02-21T19:48:10.651Z,67.75
2019-02-21T19:50:39.269Z,75.35
2019-02-21T19:53:27.442Z,72.55
2019-02-21T19:55:54.833Z,68.55
2019-02-21T19:58:24.745Z,66.75
2019-02-21T20:00:51.449Z,77.37
2019-02-21T20:03:18.908Z,64.90
2019-02-21T20:05:46.259Z,62.88
2019-02-21T20:08:20.891Z,63.63
2019-02-21T20:10:42.737Z,56.08
2019-02-21T20:13:11.325Z,66.17
2019-02-21T20:15:38.716Z,67.87
2019-02-21T20:18:27.563Z,63.20
2019-02-21T20:20:55.007Z,59.88
2019-02-21T20:23:22.345Z,61.50
2019-02-21T20:25:49.735Z,62.78
2019-02-21T20:28:17.109Z,58.42
2019-02-21T20:30:44.493Z,64.40
2019-02-21T20:33:11.770Z,61.33
2019-02-21T20:35:40.158Z,56.85
2019-02-21T20:38:07.475Z,59.00
2019-02-21T20:40:35.279Z,61.48
2019-02-21T20:43:22.297Z,61.73
2019-02-21T20:45:53.000Z,64.03
2019-02-21T20:51:17.285Z,55.60
2019-02-21T20:53:44.672Z,69.00
2019-02-21T20:56:22.256Z,66.20
2019-02-21T20:58:49.649Z,64.60
2019-02-21T21:01:36.337Z,62.80
2019-02-21T21:04:04.023Z,58.68
2019-02-21T21:06:31.482Z,57.40
2019-02-21T21:08:58.813Z,65.92
2019-02-21T21:11:26.112Z,59.77
2019-02-21T21:16:26.721Z,65.85
2019-02-21T21:18:54.150Z,61.63
2019-02-21T21:21:21.626Z,63.15
2019-02-21T21:23:48.982Z,59.73
2019-02-21T21:26:16.291Z,68.05
2019-02-21T21:29:04.817Z,61.35
2019-02-21T21:31:32.480Z,53.78
2019-02-21T21:34:00.271Z,68.37
2019-02-21T21:36:29.750Z,61.45
2019-02-21T21:38:56.638Z,60.33
2019-02-21T21:41:23.994Z,50.92
2019-02-21T21:43:51.284Z,63.55
2019-02-21T21:46:18.666Z,67.08
2019-02-21T21:48:46.021Z,59.93
2019-02-21T21:51:13.423Z,62.88
2019-02-21T21:53:40.795Z,65.47
2019-02-21T21:56:08.337Z,64.70
2019-02-21T21:58:35.744Z,65.85
2019-02-21T22:01:03.129Z,55.55
2019-02-21T22:03:30.417Z,63.08
2019-02-21T22:05:59.665Z,53.05
2019-02-21T22:08:26.978Z,59.80
2019-02-21T22:10:54.370Z,62.70
2019-02-21T22:13:21.728Z,59.85
2019-02-21T22:15:49.038Z,57.33
2019-02-21T22:18:16.396Z,54.13
2019-02-21T22:20:43.695Z,57.20
2019-02-21T22:23:11.070Z,56.42
2019-02-21T22:25:38.351Z,54.63
2019-02-21T22:28:05.675Z,63.68
2019-02-21T22:30:33.030Z,60.40
2019-02-21T22:33:00.312Z,58.75
2019-02-21T22:35:27.631Z,56.90
2019-02-21T22:37:54.999Z,60.73
2019-02-21T22:40:22.348Z,67.92
2019-02-21T22:42:49.668Z,58.92
2019-02-21T22:45:17.019Z,63.05
2019-02-21T22:47:44.360Z,61.35
2019-02-21T22:50:33.157Z,68.05
2019-02-21T22:53:00.453Z,55.33
2019-02-21T22:55:27.731Z,55.17
2019-02-21T22:57:55.036Z,57.30
2019-02-21T23:03:51.339Z,63.90
2019-02-21T23:06:38.047Z,58.92
2019-02-21T23:11:58.918Z,48.02
2019-02-21T23:14:26.212Z,55.33
2019-02-21T23:16:53.599Z,55.90
2019-02-21T23:19:21.035Z,59.58
2019-02-21T23:21:48.327Z,63.15
2019-02-21T23:24:15.641Z,63.70
2019-02-21T23:26:42.957Z,60.08
2019-02-21T23:29:10.329Z,56.80
2019-02-21T23:31:37.658Z,58.92
2019-02-21T23:36:53.047Z,50.20
2019-02-21T23:39:20.340Z,46.80
2019-02-21T23:41:47.633Z,50.17
2019-02-21T23:44:14.982Z,51.15
2019-02-21T23:46:42.299Z,54.03
2019-02-21T23:49:09.653Z,54.42
2019-02-21T23:51:37.042Z,51.35
2019-02-21T23:54:04.328Z,53.30
2019-02-21T23:56:31.621Z,52.75
2019-02-21T23:58:59.070Z,59.95
